Time;durP1;ratioP1;P1;durP2;ratioP2;P2;SDS_P1;SDS_P2;PMS_P1;PMS_P2;Temp;Humidity;BMP_temperature;BMP_pressure;BME280_temperature;BME280_humidity;BME280_pressure;Samples;Min_cycle;Max_cycle;Signal;HPM_P1;HPM_P2
2022/03/15 00:01:00;;;;;;;6.70;4.70;;;;;;;6.79;57.30;101924.03;1611896;89;21524;-79
2022/03/15 00:03:27;;;;;;;6.33;4.60;;;;;;;6.78;57.42;101921.41;1639423;87;21509;-79
2022/03/15 00:05:54;;;;;;;5.77;4.40;;;;;;;6.80;57.59;101924.90;1611638;89;21164;-78
2022/03/15 00:08:21;;;;;;;6.13;4.03;;;;;;;6.82;57.68;101934.47;1639522;87;21040;-79
2022/03/15 00:10:48;;;;;;;6.37;3.60;;;;;;;6.83;57.98;101933.59;1611757;89;21090;-79
2022/03/15 00:13:16;;;;;;;5.53;4.17;;;;;;;6.83;58.13;101940.54;1639248;87;21067;-79
2022/03/15 00:15:44;;;;;;;5.43;4.13;;;;;;;6.82;58.22;101945.33;1611903;89;21066;-79
2022/03/15 00:18:11;;;;;;;4.97;3.53;;;;;;;6.80;58.33;101945.75;1639485;87;21179;-79
2022/03/15 00:20:38;;;;;;;6.23;4.43;;;;;;;6.78;58.43;101947.47;1611745;89;21039;-79
2022/03/15 00:23:06;;;;;;;8.70;5.47;;;;;;;6.75;58.54;101948.33;1639524;87;21119;-79
2022/03/15 00:25:34;;;;;;;8.03;4.87;;;;;;;6.75;58.78;101953.98;1627446;87;21041;-78
2022/03/15 00:28:01;;;;;;;6.90;4.67;;;;;;;6.73;58.86;101957.86;1656435;86;21469;-79
2022/03/15 00:30:28;;;;;;;7.03;4.60;;;;;;;6.70;58.89;101960.47;1660878;86;21155;-79
2022/03/15 00:32:56;;;;;;;6.30;3.97;;;;;;;6.66;59.10;101961.33;1662259;86;21059;-77
2022/03/15 00:35:25;;;;;;;5.70;4.03;;;;;;;6.61;59.42;101961.30;1674667;85;21514;-79
2022/03/15 00:37:55;;;;;;;6.17;4.40;;;;;;;6.59;59.55;101960.41;1658348;86;21035;-79
2022/03/15 00:40:24;;;;;;;5.37;4.07;;;;;;;6.56;59.60;101962.14;1630084;88;21052;-79
2022/03/15 00:42:51;;;;;;;5.53;3.87;;;;;;;6.53;59.91;101963.44;1658233;86;21118;-79
2022/03/15 00:45:23;;;;;;;5.33;3.80;;;;;;;6.50;60.25;101962.98;1662061;86;20999;-79
2022/03/15 00:47:55;;;;;;;5.28;3.72;;;;;;;6.48;60.39;101968.20;1675049;85;21451;-78
2022/03/15 00:50:23;;;;;;;6.30;4.00;;;;;;;6.47;60.63;101969.05;1658451;86;21035;-79
2022/03/15 00:52:51;;;;;;;5.50;3.97;;;;;;;6.47;60.72;101962.98;1630017;88;21261;-79
2022/03/15 00:55:18;;;;;;;6.53;3.90;;;;;;;6.47;60.85;101972.09;1658451;86;21275;-79
2022/03/15 00:57:46;;;;;;;6.00;4.13;;;;;;;6.46;60.99;101972.53;1630167;88;21059;-79
2022/03/15 01:00:16;;;;;;;8.07;4.50;;;;;;;6.43;61.14;101960.80;1658512;86;21508;-79
2022/03/15 01:02:43;;;;;;;6.25;4.12;;;;;;;6.44;61.35;101965.56;1630061;88;21059;-79
2022/03/15 01:05:11;;;;;;;5.10;3.93;;;;;;;6.43;61.54;101959.93;1658149;86;21035;-78
2022/03/15 01:07:40;;;;;;;6.13;4.43;;;;;;;6.42;61.86;101957.73;1629743;88;22113;-78
2022/03/15 01:10:09;;;;;;;6.30;4.80;;;;;;;6.44;62.00;101958.62;1658197;86;21047;-79
2022/03/15 01:12:36;;;;;;;8.23;5.13;;;;;;;6.42;62.23;101959.47;1629950;88;21031;-79
2022/03/15 01:15:07;;;;;;;7.37;5.17;;;;;;;6.38;62.56;101946.88;1658436;86;21112;-79
2022/03/15 01:17:35;;;;;;;7.00;4.60;;;;;;;6.35;63.12;101945.56;1630153;88;21039;-78
2022/03/15 01:20:05;;;;;;;7.80;4.77;;;;;;;6.34;63.35;101945.54;1658254;86;21137;-80
2022/03/15 01:22:33;;;;;;;7.67;4.90;;;;;;;6.32;63.56;101949.86;1630167;88;21040;-80
2022/03/15 01:25:00;;;;;;;8.00;5.50;;;;;;;6.29;63.96;101942.93;1658193;85;21058;-79
2022/03/15 01:27:27;;;;;;;7.20;5.27;;;;;;;6.30;64.23;101944.66;1658284;86;21054;-80
2022/03/15 01:30:00;;;;;;;9.27;6.13;;;;;;;6.29;64.48;101943.34;1658155;86;21066;-80
2022/03/15 01:32:27;;;;;;;24.00;15.13;;;;;;;6.27;64.92;101943.34;1658330;86;21100;-79
2022/03/15 01:34:54;;;;;;;10.27;7.93;;;;;;;6.27;65.34;101945.95;1658091;86;21599;-78
2022/03/15 01:37:21;;;;;;;7.77;5.70;;;;;;;6.29;65.47;101947.24;1658274;86;21583;-79
2022/03/15 01:39:48;;;;;;;10.47;7.43;;;;;;;6.27;65.56;101939.88;1658144;86;21090;-79
2022/03/15 01:42:15;;;;;;;39.73;29.53;;;;;;;6.26;65.92;101942.89;1658232;86;21040;-81
2022/03/15 01:44:49;;;;;;;12.83;9.80;;;;;;;6.25;65.99;101949.83;1658347;86;21212;-81
2022/03/15 01:47:17;;;;;;;11.03;7.13;;;;;;;6.26;66.15;101952.00;1658354;86;21044;-77
2022/03/15 01:49:45;;;;;;;13.40;10.90;;;;;;;6.25;66.46;101956.34;1658181;86;21032;-79
2022/03/15 01:52:15;;;;;;;8.57;6.80;;;;;;;6.23;66.64;101949.38;1658201;86;21043;-79
2022/03/15 01:54:43;;;;;;;;;;;;;;;6.21;66.72;101948.09;1660731;86;21031;-79
2022/03/15 01:57:10;;;;;;;12.10;9.17;;;;;;;6.18;67.24;101953.69;1658501;86;21123;-79
2022/03/15 01:59:39;;;;;;;12.67;10.30;;;;;;;6.14;67.28;101947.59;1658213;86;21035;-79
2022/03/15 02:02:06;;;;;;;11.00;8.10;;;;;;;6.18;67.49;101951.98;1658350;86;21505;-79
2022/03/15 02:04:39;;;;;;;7.73;5.90;;;;;;;6.17;67.56;101950.22;1658331;86;21070;-75
2022/03/15 02:07:10;;;;;;;8.53;6.93;;;;;;;6.19;67.61;101947.64;1658441;86;21043;-80
2022/03/15 02:09:38;;;;;;;9.33;7.13;;;;;;;6.16;67.80;101942.42;1658197;86;21964;-79
2022/03/15 02:12:08;;;;;;;8.63;6.90;;;;;;;6.15;68.12;101940.66;1658431;86;21054;-79
2022/03/15 02:14:35;;;;;;;11.30;8.03;;;;;;;6.15;68.19;101943.26;1658422;86;21493;-80
2022/03/15 02:17:03;;;;;;;8.63;6.67;;;;;;;6.14;68.31;101935.88;1658588;86;21094;-79
2022/03/15 02:19:32;;;;;;;8.10;6.20;;;;;;;6.14;68.37;101936.33;1658511;86;21039;-79
2022/03/15 02:21:59;;;;;;;8.93;6.90;;;;;;;6.11;68.45;101933.27;1658581;86;22011;-79
2022/03/15 02:24:27;;;;;;;10.57;7.50;;;;;;;6.11;68.60;101931.97;1660376;85;21007;-79
2022/03/15 02:26:54;;;;;;;9.40;6.67;;;;;;;6.10;68.77;101931.97;1667958;86;21058;-81
2022/03/15 02:29:22;;;;;;;9.33;6.53;;;;;;;6.08;68.73;101937.16;1668001;86;22060;-79
2022/03/15 02:31:50;;;;;;;11.40;8.40;;;;;;;6.03;68.89;101931.91;1668103;86;21047;-80
2022/03/15 02:34:18;;;;;;;11.10;8.77;;;;;;;6.02;69.13;101931.48;1667960;86;21078;-79
2022/03/15 02:36:45;;;;;;;13.80;10.27;;;;;;;6.05;69.44;101927.17;1668011;86;21659;-80
2022/03/15 02:39:13;;;;;;;11.70;8.10;;;;;;;6.08;69.67;101928.48;1668029;86;21027;-80
2022/03/15 02:41:40;;;;;;;10.73;7.83;;;;;;;6.10;69.64;101928.94;1667947;86;21519;-79
2022/03/15 02:44:08;;;;;;;10.83;8.37;;;;;;;6.10;69.72;101926.33;1668050;86;21627;-79
2022/03/15 02:46:39;;;;;;;10.47;7.83;;;;;;;6.10;69.96;101938.05;1668169;86;21108;-79
2022/03/15 02:49:04;;;;;;;11.83;8.10;;;;;;;6.13;70.11;101943.70;1667958;86;20998;-79
2022/03/15 02:51:31;;;;;;;11.37;8.40;;;;;;;6.14;70.23;101933.72;1668034;86;21019;-79
2022/03/15 02:54:04;;;;;;;11.13;8.40;;;;;;;6.15;70.21;101921.13;1668068;86;21012;-79
2022/03/15 02:56:29;;;;;;;13.00;9.87;;;;;;;6.17;70.33;101924.63;1667423;86;21543;-77
2022/03/15 02:58:56;;;;;;;12.33;9.37;;;;;;;6.18;70.48;101931.16;1667933;86;22346;-79
2022/03/15 03:01:24;;;;;;;11.00;9.27;;;;;;;6.19;70.39;101927.67;1667970;86;21087;-79
2022/03/15 03:03:53;;;;;;;14.63;10.23;;;;;;;6.21;70.58;101932.91;1667970;86;21038;-79
2022/03/15 03:06:20;;;;;;;12.97;10.60;;;;;;;6.21;70.69;101933.77;1667932;86;21042;-78
2022/03/15 03:08:47;;;;;;;15.80;9.87;;;;;;;6.20;70.66;101936.35;1668069;86;21035;-79
2022/03/15 03:11:14;;;;;;;11.83;9.60;;;;;;;6.22;70.76;101939.41;1667933;86;21047;-79
2022/03/15 03:13:42;;;;;;;13.20;10.10;;;;;;;6.22;70.87;101934.20;1668161;86;21059;-80
2022/03/15 03:16:10;;;;;;;13.33;10.77;;;;;;;6.22;71.02;101937.23;1667953;86;21595;-79
2022/03/15 03:18:39;;;;;;;14.00;9.80;;;;;;;6.24;71.14;101940.73;1668361;86;21015;-79
2022/03/15 03:21:07;;;;;;;14.83;10.57;;;;;;;6.25;71.21;101938.55;1668214;86;21074;-78
2022/03/15 03:23:36;;;;;;;13.17;9.67;;;;;;;6.25;71.33;101941.16;1668119;86;21097;-79
2022/03/15 03:26:04;;;;;;;10.67;9.23;;;;;;;6.25;71.18;101944.63;1684150;84;21021;-79
2022/03/15 03:28:38;;;;;;;12.00;9.27;;;;;;;6.23;71.19;101946.78;1690067;84;21031;-79
2022/03/15 03:31:09;;;;;;;11.37;8.67;;;;;;;6.21;71.24;101948.09;1690127;84;21044;-79
2022/03/15 03:33:37;;;;;;;;;;;;;;;6.20;71.21;101942.86;1692642;84;21574;-79
2022/03/15 03:36:06;;;;;;;14.10;9.43;;;;;;;6.18;71.62;101941.97;1690133;84;21180;-79
2022/03/15 03:38:34;;;;;;;11.47;9.03;;;;;;;6.14;71.42;101946.30;1689962;84;21009;-79
2022/03/15 03:41:01;;;;;;;13.17;9.60;;;;;;;6.12;71.48;101952.36;1690074;84;21022;-79
2022/03/15 03:43:28;;;;;;;15.23;10.40;;;;;;;6.10;71.54;101947.16;1689998;84;21526;-79
2022/03/15 03:45:57;;;;;;;12.33;9.60;;;;;;;6.06;71.35;101951.02;1690211;84;21554;-79
2022/03/15 03:48:25;;;;;;;15.13;9.53;;;;;;;6.02;71.60;101956.21;1689983;84;21170;-78
2022/03/15 03:50:54;;;;;;;12.50;8.93;;;;;;;6.02;71.62;101955.34;1690150;84;21493;-79
2022/03/15 03:53:23;;;;;;;15.50;11.57;;;;;;;5.99;71.64;101957.50;1690006;84;21530;-77
2022/03/15 03:55:50;;;;;;;14.77;11.87;;;;;;;6.00;71.85;101960.97;1690439;84;21017;-78
2022/03/15 03:58:17;;;;;;;12.53;9.90;;;;;;;5.98;71.89;101957.03;1690190;84;21092;-79
2022/03/15 04:00:44;;;;;;;11.13;8.50;;;;;;;5.96;71.87;101958.78;1690311;84;21136;-79
2022/03/15 04:03:13;;;;;;;9.33;7.30;;;;;;;5.95;72.08;101964.83;1690047;84;22114;-79
2022/03/15 04:05:40;;;;;;;10.37;8.03;;;;;;;5.96;72.09;101966.59;1690228;84;21057;-78
2022/03/15 04:08:07;;;;;;;12.97;9.03;;;;;;;5.96;72.16;101960.08;1689970;84;20937;-79
2022/03/15 04:10:37;;;;;;;10.67;8.07;;;;;;;5.95;72.07;101960.92;1690254;84;21028;-79
2022/03/15 04:13:07;;;;;;;11.10;7.80;;;;;;;5.96;72.26;101961.81;1689958;84;21098;-79
2022/03/15 04:15:35;;;;;;;11.53;7.80;;;;;;;5.94;72.25;101959.63;1690024;84;20949;-75
2022/03/15 04:18:03;;;;;;;11.37;8.27;;;;;;;5.92;72.28;101957.40;1689756;84;21123;-72
2022/03/15 04:20:36;;;;;;;12.93;8.50;;;;;;;5.89;72.34;101954.34;1690014;84;21041;-78
2022/03/15 04:23:01;;;;;;;11.40;8.47;;;;;;;5.88;72.35;101962.16;1689565;83;21100;-78
2022/03/15 04:25:28;;;;;;;11.00;8.37;;;;;;;5.84;72.34;101962.98;1692500;84;21107;-78
2022/03/15 04:28:00;;;;;;;10.87;7.60;;;;;;;5.82;72.40;101957.78;1697448;84;21032;-80
2022/03/15 04:30:30;;;;;;;10.40;7.72;;;;;;;5.81;72.47;101958.63;1697422;84;21044;-80
2022/03/15 04:33:01;;;;;;;10.77;7.80;;;;;;;5.82;72.46;101960.38;1675533;84;21074;-80
2022/03/15 04:35:29;;;;;;;13.67;8.20;;;;;;;5.79;72.52;101962.53;1639503;87;21085;-79
2022/03/15 04:37:57;;;;;;;13.40;8.17;;;;;;;5.78;72.37;101968.57;1668011;86;21772;-79
2022/03/15 04:40:25;;;;;;;12.20;8.27;;;;;;;5.75;72.42;101968.98;1639316;87;20939;-80
2022/03/15 04:42:55;;;;;;;15.73;10.20;;;;;;;5.71;72.36;101967.20;1667883;86;21047;-79
2022/03/15 04:45:22;;;;;;;15.30;9.20;;;;;;;5.65;72.46;101965.86;1639503;87;21071;-80
2022/03/15 04:47:49;;;;;;;14.47;8.80;;;;;;;5.63;72.66;101971.50;1668054;86;21106;-78
2022/03/15 04:50:17;;;;;;;12.47;8.80;;;;;;;5.61;72.64;101974.51;1639692;87;21641;-79
2022/03/15 04:52:44;;;;;;;13.63;9.20;;;;;;;5.60;72.76;101982.75;1667851;86;21050;-79
2022/03/15 04:55:11;;;;;;;12.77;8.53;;;;;;;5.56;72.71;101983.13;1639703;87;20999;-79
2022/03/15 04:57:40;;;;;;;12.93;9.20;;;;;;;5.54;72.75;101989.17;1667841;86;21095;-79
2022/03/15 05:00:09;;;;;;;14.53;9.73;;;;;;;5.48;72.73;101986.52;1639609;87;21007;-78
2022/03/15 05:02:44;;;;;;;15.23;9.10;;;;;;;5.42;72.75;101993.84;1667863;85;21335;-80
2022/03/15 05:05:12;;;;;;;12.90;9.43;;;;;;;5.37;72.98;101985.11;1638779;87;20911;-79
2022/03/15 05:07:40;;;;;;;13.50;9.13;;;;;;;5.35;73.13;101989.02;1668081;86;21058;-81
2022/03/15 05:12:53;;;;;;;15.07;9.53;;;;;;;5.33;73.19;101996.36;1659388;86;21071;-75
2022/03/15 05:15:20;;;;;;;14.40;8.60;;;;;;;5.33;73.47;101992.45;1635606;87;21524;-75
2022/03/15 05:17:47;;;;;;;14.37;9.70;;;;;;;5.34;73.57;101990.28;1678432;84;21047;-77
2022/03/15 05:20:14;;;;;;;13.77;8.97;;;;;;;5.35;73.58;101989.45;1681601;84;21088;-75
2022/03/15 05:22:43;;;;;;;15.57;10.17;;;;;;;5.34;73.64;101987.69;1634582;87;21043;-75
2022/03/15 05:25:14;;;;;;;16.23;10.20;;;;;;;5.34;73.60;101982.48;1695332;84;21046;-74
2022/03/15 05:28:02;;;;;;;15.67;9.23;;;;;;;5.35;73.71;101975.15;1686640;84;21186;-75
2022/03/15 05:30:29;;;;;;;14.20;9.63;;;;;;;5.36;73.71;101976.88;1624451;86;21071;-74
2022/03/15 05:32:56;;;;;;;14.40;9.60;;;;;;;5.37;73.71;101976.88;1656811;85;21045;-73
2022/03/15 05:35:23;;;;;;;14.57;10.07;;;;;;;5.37;73.69;101977.31;1628023;88;21612;-74
2022/03/15 05:37:50;;;;;;;13.37;9.73;;;;;;;5.37;73.64;101974.71;1628070;88;21132;-75
2022/03/15 05:40:17;;;;;;;15.10;10.60;;;;;;;5.35;73.70;101977.31;1628121;88;21146;-75
2022/03/15 05:42:44;;;;;;;13.07;9.53;;;;;;;5.34;73.58;101975.98;1621610;88;21076;-73
2022/03/15 05:45:12;;;;;;;16.23;10.17;;;;;;;5.32;73.66;101972.09;1624368;87;21085;-75
2022/03/15 05:47:39;;;;;;;16.93;9.47;;;;;;;5.33;73.62;101975.55;1638603;87;21437;-74
2022/03/15 05:50:07;;;;;;;14.43;10.27;;;;;;;5.33;73.71;101980.32;1638382;87;21075;-75
2022/03/15 05:52:34;;;;;;;15.80;10.43;;;;;;;5.33;73.61;101979.45;1638762;87;21573;-74
2022/03/15 05:55:02;;;;;;;15.57;10.10;;;;;;;5.32;73.62;101979.89;1664136;85;20911;-74
2022/03/15 05:57:29;;;;;;;17.63;11.00;;;;;;;5.32;73.62;101981.19;1682150;85;21007;-75
2022/03/15 05:59:56;;;;;;;15.70;10.67;;;;;;;5.32;73.58;101974.69;1682315;85;21034;-74
2022/03/15 06:02:23;;;;;;;14.00;10.43;;;;;;;5.30;73.55;101974.23;1681352;85;21370;-76
2022/03/15 06:04:50;;;;;;;14.33;10.10;;;;;;;5.30;73.61;101980.30;1680774;85;21144;-75
2022/03/15 06:07:18;;;;;;;16.17;10.20;;;;;;;5.30;73.62;101976.39;1668871;85;38516;-75
2022/03/15 06:09:46;;;;;;;17.43;10.20;;;;;;;5.33;73.70;101973.82;1707396;83;21039;-73
2022/03/15 06:12:13;;;;;;;14.70;9.73;;;;;;;5.36;73.75;101969.95;1664784;85;21420;-75
2022/03/15 06:14:40;;;;;;;15.97;10.20;;;;;;;5.38;73.70;101959.58;1652568;86;21029;-75
2022/03/15 06:17:07;;;;;;;16.73;10.23;;;;;;;5.41;73.74;101961.34;1652611;86;21138;-74
2022/03/15 06:19:34;;;;;;;14.23;9.50;;;;;;;5.44;73.82;101954.42;1652498;86;21033;-75
2022/03/15 06:22:01;;;;;;;15.53;9.53;;;;;;;5.47;73.71;101950.55;1652737;86;20994;-76
2022/03/15 06:24:28;;;;;;;17.03;9.50;;;;;;;5.50;73.87;101946.67;1652594;86;21037;-76
2022/03/15 06:26:55;;;;;;;15.50;9.20;;;;;;;5.56;73.98;101947.15;1652739;86;21587;-75
2022/03/15 06:29:22;;;;;;;15.37;11.00;;;;;;;5.62;73.94;101939.83;1670947;84;21154;-77
2022/03/15 06:31:49;;;;;;;14.50;10.83;;;;;;;5.68;74.04;101944.66;1691652;84;21071;-78
2022/03/15 06:34:16;;;;;;;20.23;14.73;;;;;;;5.73;73.95;101946.84;1691593;84;21075;-76
2022/03/15 06:36:44;;;;;;;20.50;11.30;;;;;;;5.78;73.88;101943.86;1691516;84;21041;-75
2022/03/15 06:39:11;;;;;;;18.53;11.77;;;;;;;5.84;73.91;101949.97;1662432;86;21019;-76
2022/03/15 06:41:40;;;;;;;17.73;11.90;;;;;;;5.88;73.85;101950.45;1691744;83;22301;-75
2022/03/15 06:44:08;;;;;;;19.50;13.07;;;;;;;5.92;73.87;101949.16;1700231;83;20984;-74
2022/03/15 06:46:35;;;;;;;16.30;12.30;;;;;;;5.98;73.90;101945.76;1719410;83;21007;-74
2022/03/15 06:49:04;;;;;;;20.33;12.97;;;;;;;6.03;73.87;101948.83;1715336;83;21101;-78
2022/03/15 06:51:31;;;;;;;13.90;8.80;;;;;;;6.09;73.84;101946.70;1717450;83;21000;-76
2022/03/15 06:53:58;;;;;;;16.50;10.40;;;;;;;6.17;73.78;101950.66;1717898;83;21109;-76
2022/03/15 06:56:25;;;;;;;19.83;14.30;;;;;;;6.24;73.85;101953.75;1717195;83;21029;-75
2022/03/15 06:58:52;;;;;;;17.37;10.57;;;;;;;6.34;73.90;101954.22;1717216;83;21473;-78
2022/03/15 07:01:19;;;;;;;15.33;8.90;;;;;;;6.43;73.86;101954.28;1709366;83;21096;-75
2022/03/15 07:03:46;;;;;;;14.00;9.03;;;;;;;6.53;73.86;101953.88;1717694;83;21485;-75
2022/03/15 07:06:15;;;;;;;13.60;8.57;;;;;;;6.62;73.63;101954.34;1721085;83;21839;-77
2022/03/15 07:08:41;;;;;;;17.07;8.97;;;;;;;6.70;73.65;101949.60;1721059;83;20993;-75
2022/03/15 07:11:09;;;;;;;13.40;8.27;;;;;;;6.80;73.56;101953.56;1720874;82;20986;-74
2022/03/15 07:13:36;;;;;;;14.00;8.37;;;;;;;6.89;73.53;101955.75;1721124;82;21483;-77
2022/03/15 07:16:03;;;;;;;12.97;8.20;;;;;;;6.99;73.57;101955.36;1720995;83;21012;-77
2022/03/15 07:18:31;;;;;;;12.63;8.20;;;;;;;7.10;73.44;101956.70;1715008;82;21128;-74
2022/03/15 07:20:59;;;;;;;13.77;8.13;;;;;;;7.18;73.26;101957.58;1713299;83;21009;-76
2022/03/15 07:23:26;;;;;;;12.87;8.00;;;;;;;7.26;73.26;101953.66;1713711;83;21030;-74
2022/03/15 07:25:53;;;;;;;12.73;8.37;;;;;;;7.34;73.04;101953.23;1713770;83;21032;-76
2022/03/15 07:28:20;;;;;;;15.47;8.70;;;;;;;7.40;72.98;101951.97;1720934;83;21020;-76
2022/03/15 07:30:46;;;;;;;16.57;8.57;;;;;;;7.47;72.79;101951.52;1697125;83;21101;-76
2022/03/15 07:33:14;;;;;;;14.13;8.10;;;;;;;7.51;72.67;101958.06;1695065;84;21532;-76
2022/03/15 07:35:41;;;;;;;13.17;8.27;;;;;;;7.58;72.70;101957.61;1695270;84;20972;-77
2022/03/15 07:38:08;;;;;;;13.00;8.37;;;;;;;7.65;72.57;101958.06;1695342;84;21022;-76
2022/03/15 07:40:35;;;;;;;16.40;8.57;;;;;;;7.72;72.48;101963.70;1695197;84;21055;-75
2022/03/15 07:43:02;;;;;;;11.57;7.80;;;;;;;7.79;72.44;101961.53;1695218;84;21144;-77
2022/03/15 07:45:29;;;;;;;10.47;7.80;;;;;;;7.87;72.38;101955.01;1695261;84;21023;-78
2022/03/15 07:47:56;;;;;;;16.37;8.27;;;;;;;7.97;72.25;101958.47;1695276;84;21024;-77
2022/03/15 07:50:25;;;;;;;14.13;8.40;;;;;;;8.02;72.09;101961.50;1695200;84;21078;-76
2022/03/15 07:52:53;;;;;;;12.57;8.60;;;;;;;8.11;72.09;101958.00;1695307;84;21039;-76
2022/03/15 07:55:24;;;;;;;12.03;7.57;;;;;;;8.22;72.03;101957.98;1676016;84;21188;-77
2022/03/15 07:57:51;;;;;;;13.10;8.03;;;;;;;8.32;71.88;101952.31;1665636;86;20994;-78
2022/03/15 08:00:18;;;;;;;13.30;8.13;;;;;;;8.42;71.65;101957.51;1666595;86;21431;-76
2022/03/15 08:02:45;;;;;;;11.53;7.67;;;;;;;8.51;71.60;101962.27;1700716;84;21025;-77
2022/03/15 08:05:14;;;;;;;11.07;7.97;;;;;;;8.59;71.42;101952.25;1677079;84;21485;-75
2022/03/15 08:07:41;;;;;;;12.07;8.13;;;;;;;8.69;71.36;101959.16;1667210;86;21182;-76
2022/03/15 08:10:10;;;;;;;13.43;8.37;;;;;;;8.80;71.33;101956.50;1638308;87;21081;-76
2022/03/15 08:12:39;;;;;;;13.00;7.80;;;;;;;8.93;71.24;101952.09;1698489;84;21025;-76
2022/03/15 08:15:08;;;;;;;13.57;8.27;;;;;;;9.03;71.17;101959.42;1693779;84;21002;-77
2022/03/15 08:17:36;;;;;;;15.33;8.90;;;;;;;9.11;70.76;101953.27;1693651;83;21082;-77
2022/03/15 08:20:05;;;;;;;13.97;10.57;;;;;;;9.19;70.55;101944.07;1694676;84;21896;-78
2022/03/15 08:22:34;;;;;;;;;;;;;;;9.28;70.48;101932.67;1682573;85;21014;-79
2022/03/15 08:25:02;;;;;;;14.93;8.97;;;;;;;9.36;70.22;101936.10;1680400;85;20178;-79
2022/03/15 08:27:31;;;;;;;17.23;11.13;;;;;;;9.43;70.13;101929.95;1680007;85;21976;-78
2022/03/15 08:29:58;;;;;;;13.67;8.27;;;;;;;9.50;69.79;101935.55;1684273;84;21480;-81
2022/03/15 08:32:25;;;;;;;11.93;7.87;;;;;;;9.57;69.85;101932.02;1681716;84;21108;-76
2022/03/15 08:34:53;;;;;;;14.67;7.80;;;;;;;9.73;69.91;101927.97;1681739;85;21009;-76
2022/03/15 08:37:20;;;;;;;12.70;7.73;;;;;;;9.91;69.62;101928.22;1681448;84;21044;-77
2022/03/15 08:39:47;;;;;;;13.43;7.97;;;;;;;10.04;69.38;101923.29;1681817;84;21024;-77
2022/03/15 08:42:14;;;;;;;15.80;8.20;;;;;;;10.21;69.17;101926.59;1681631;85;21293;-76
2022/03/15 08:44:41;;;;;;;12.00;7.97;;;;;;;10.36;68.99;101922.08;1681813;84;21033;-76
2022/03/15 08:47:08;;;;;;;14.53;8.00;;;;;;;10.52;68.71;101917.08;1688632;83;21466;-77
2022/03/15 08:49:36;;;;;;;15.30;9.23;;;;;;;10.63;68.36;101912.56;1697285;83;21511;-77
2022/03/15 08:52:03;;;;;;;14.67;9.37;;;;;;;10.80;68.29;101916.72;1705333;84;20995;-78
2022/03/15 08:54:30;;;;;;;13.37;10.07;;;;;;;10.92;67.77;101915.26;1709633;83;20985;-79
2022/03/15 08:56:57;;;;;;;14.10;9.50;;;;;;;11.00;67.29;101919.95;1718056;82;21203;-77
2022/03/15 08:59:25;;;;;;;15.07;9.93;;;;;;;11.14;67.36;101914.05;1717972;83;21033;-77
2022/03/15 09:01:52;;;;;;;12.77;9.80;;;;;;;11.29;67.02;101914.24;1710121;83;21055;-77
2022/03/15 09:04:19;;;;;;;13.53;9.63;;;;;;;11.43;66.80;101911.84;1717985;82;21002;-79
2022/03/15 09:06:47;;;;;;;16.00;10.23;;;;;;;11.54;66.52;101913.84;1717943;83;21001;-78
2022/03/15 09:09:21;;;;;;;15.10;10.40;;;;;;;11.61;66.16;101917.66;1710118;83;21123;-78
2022/03/15 09:11:48;;;;;;;18.43;11.50;;;;;;;11.70;65.92;101910.07;1709897;83;21012;-78
2022/03/15 09:14:15;;;;;;;16.07;11.63;;;;;;;11.79;65.69;101911.20;1710026;83;21416;-78
2022/03/15 09:16:43;;;;;;;16.37;12.27;;;;;;;11.84;65.16;101911.14;1710097;83;21562;-78
2022/03/15 09:19:11;;;;;;;19.37;12.17;;;;;;;11.95;65.08;101910.52;1710111;83;21441;-78
2022/03/15 09:21:38;;;;;;;21.25;13.08;;;;;;;12.04;64.83;101910.80;1710203;83;21935;-79
2022/03/15 09:24:06;;;;;;;19.50;12.67;;;;;;;12.13;64.37;101913.69;1709945;83;21410;-78
2022/03/15 09:26:33;;;;;;;19.10;11.80;;;;;;;12.29;64.71;101899.35;1710269;83;20996;-78
2022/03/15 09:29:01;;;;;;;19.37;12.93;;;;;;;12.54;64.65;101895.77;1710058;83;20992;-78
2022/03/15 09:31:29;;;;;;;21.20;13.45;;;;;;;12.73;63.96;101897.55;1726792;81;21476;-78
2022/03/15 09:33:56;;;;;;;20.43;14.25;;;;;;;12.79;63.35;101890.83;1728167;83;22230;-77
2022/03/15 09:36:23;;;;;;;19.27;14.28;;;;;;;12.98;63.31;101885.16;1725763;83;20948;-78
2022/03/15 09:38:50;;;;;;;16.95;12.82;;;;;;;13.12;62.71;101883.92;1725280;83;21034;-77
2022/03/15 09:41:18;;;;;;;20.97;13.60;;;;;;;13.16;62.23;101882.06;1709677;83;21039;-77
2022/03/15 09:43:47;;;;;;;17.65;12.58;;;;;;;13.21;61.85;101881.51;1709791;84;21088;-80
2022/03/15 09:46:16;;;;;;;18.95;11.73;;;;;;;13.30;61.63;101881.77;1728259;83;21143;-79
2022/03/15 09:48:46;;;;;;;16.20;10.75;;;;;;;13.42;61.50;101876.66;1728630;83;21034;-78
2022/03/15 09:51:14;;;;;;;23.12;12.93;;;;;;;13.53;60.99;101874.16;1728389;83;21022;-79
2022/03/15 09:53:42;;;;;;;18.17;11.68;;;;;;;13.68;60.97;101874.66;1728333;83;20942;-80
2022/03/15 09:56:16;;;;;;;17.73;11.40;;;;;;;13.81;60.50;101870.80;1728446;83;21129;-80
2022/03/15 09:58:46;;;;;;;15.78;11.83;;;;;;;13.91;60.26;101870.97;1728361;83;21496;-80
2022/03/15 10:01:18;;;;;;;15.10;11.03;;;;;;;13.90;59.63;101866.59;1728570;83;20983;-80
2022/03/15 10:03:46;;;;;;;15.43;10.88;;;;;;;13.95;59.48;101862.06;1728401;83;21018;-80
2022/03/15 10:06:14;;;;;;;15.53;11.43;;;;;;;14.09;59.36;101862.98;1728264;83;21490;-79
2022/03/15 10:08:42;;;;;;;15.43;11.03;;;;;;;14.23;59.05;101854.69;1725736;83;21028;-80
2022/03/15 10:11:12;;;;;;;16.27;10.90;;;;;;;14.29;58.61;101859.31;1706831;83;21153;-80
2022/03/15 10:13:41;;;;;;;17.65;11.15;;;;;;;14.40;58.25;101859.46;1706697;83;21079;-79
2022/03/15 10:16:14;;;;;;;14.28;10.85;;;;;;;14.57;58.21;101846.66;1687631;84;21537;-79
2022/03/15 10:18:55;;;;;;;16.23;11.45;;;;;;;14.84;57.85;101846.25;1737945;82;20986;-79
2022/03/15 10:21:25;;;;;;;14.58;11.60;;;;;;;15.08;57.43;101844.61;1745539;81;21546;-79
2022/03/15 10:23:55;;;;;;;18.32;12.93;;;;;;;15.32;56.67;101839.41;1725484;83;21126;-79
2022/03/15 10:26:27;;;;;;;19.80;13.22;;;;;;;15.53;56.34;101834.72;1725498;83;21481;-81
2022/03/15 10:28:56;;;;;;;15.95;13.00;;;;;;;15.78;55.89;101832.09;1725362;83;21066;-80
2022/03/15 10:31:25;;;;;;;17.10;12.10;;;;;;;16.06;55.59;101829.77;1725810;83;21049;-81
2022/03/15 10:34:01;;;;;;;14.68;11.60;;;;;;;16.20;54.11;101845.98;1725515;82;21011;-80
2022/03/15 10:36:26;;;;;;;18.37;11.33;;;;;;;16.20;54.11;101845.98;1725410;82;21137;-80
2022/03/15 10:38:54;;;;;;;16.57;11.45;;;;;;;16.29;54.00;101831.53;1725762;83;21054;-80
2022/03/15 10:41:21;;;;;;;17.55;12.60;;;;;;;16.45;53.54;101827.85;1725912;83;21472;-80
2022/03/15 10:44:01;;;;;;;14.45;11.97;;;;;;;16.54;52.93;101822.66;1725791;83;21003;-80
2022/03/15 10:46:26;;;;;;;14.63;11.83;;;;;;;16.58;52.87;101822.95;1725558;82;21488;-81
2022/03/15 10:49:03;;;;;;;13.38;11.33;;;;;;;16.50;52.31;101825.42;1725799;82;21100;-80
2022/03/15 10:51:30;;;;;;;16.80;10.55;;;;;;;16.43;52.06;101826.61;1725468;83;21007;-79
2022/03/15 10:54:04;;;;;;;16.45;10.90;;;;;;;16.09;51.25;101824.36;1725532;83;21477;-80
2022/03/15 10:56:34;;;;;;;16.50;10.58;;;;;;;15.98;51.68;101818.14;1725534;83;20907;-79
2022/03/15 10:59:03;;;;;;;;;;;;;;;15.98;51.68;101818.14;1728163;82;21389;-80
2022/03/15 11:01:40;;;;;;;15.65;12.58;;;;;;;16.02;51.31;101813.63;1758999;81;21117;-79
2022/03/15 11:04:11;;;;;;;15.90;11.78;;;;;;;16.16;51.39;101809.14;1725466;83;21034;-80
2022/03/15 11:06:51;;;;;;;16.17;11.65;;;;;;;15.97;50.96;101799.70;1725676;83;21520;-77
2022/03/15 11:09:29;;;;;;;15.75;10.98;;;;;;;15.97;50.96;101799.70;1725915;82;21027;-80
2022/03/15 11:12:04;;;;;;;13.18;10.35;;;;;;;15.93;51.00;101801.58;1725522;82;21015;-79
2022/03/15 11:14:42;;;;;;;15.93;10.85;;;;;;;15.90;50.84;101797.73;1725538;82;21306;-79
2022/03/15 11:17:23;;;;;;;16.02;11.55;;;;;;;15.90;50.85;101801.70;1725580;82;21035;-79
2022/03/15 11:19:57;;;;;;;15.75;10.80;;;;;;;15.84;50.62;101794.00;1725534;83;21034;-79
2022/03/15 11:22:28;;;;;;;13.60;9.58;;;;;;;15.84;50.64;101800.14;1725614;83;21101;-79
2022/03/15 11:25:08;;;;;;;15.45;11.40;;;;;;;15.87;50.61;101792.56;1758839;81;21003;-78
2022/03/15 11:27:41;;;;;;;15.48;11.75;;;;;;;15.79;50.09;101789.33;1724974;82;22881;-79
2022/03/15 11:30:17;;;;;;;15.25;10.88;;;;;;;15.58;49.79;101793.14;1724057;82;21034;-79